createdAt,value
2018-07-02T00:00:39.829Z,19.60
2018-07-02T00:03:13.283Z,19.50
2018-07-02T00:06:03.010Z,19.40
2018-07-02T00:08:43.144Z,19.50
2018-07-02T00:11:28.992Z,19.50
2018-07-02T00:14:08.598Z,19.50
2018-07-02T00:19:33.810Z,19.40
2018-07-02T00:22:16.559Z,19.40
2018-07-02T00:24:54.630Z,19.40
2018-07-02T03:30:14.902Z,19.10
2018-07-02T03:32:50.408Z,17.10
2018-07-02T03:35:24.918Z,17.10
2018-07-02T03:38:01.048Z,17.10
2018-07-02T03:40:34.456Z,16.90
2018-07-02T03:43:10.554Z,16.80
2018-07-02T03:45:42.175Z,16.90
2018-07-02T03:48:14.953Z,16.80
2018-07-02T03:50:50.629Z,16.80
2018-07-02T03:53:25.498Z,16.90
2018-07-02T03:56:04.326Z,16.90
2018-07-02T03:58:46.612Z,17.10
2018-07-02T04:01:20.471Z,17.10
2018-07-02T04:04:05.042Z,17.00
2018-07-02T04:06:37.231Z,16.90
2018-07-02T04:09:20.717Z,16.70
2018-07-02T04:11:58.056Z,16.60
2018-07-02T04:14:33.701Z,16.60
2018-07-02T04:17:04.658Z,16.50
2018-07-02T04:19:42.658Z,16.70
2018-07-02T04:22:41.110Z,17.80
2018-07-02T04:25:18.309Z,19.30
2018-07-02T04:28:03.779Z,20.80
2018-07-02T04:30:46.460Z,21.80
2018-07-02T04:33:20.300Z,22.80
2018-07-02T04:38:49.793Z,24.10
2018-07-02T04:41:44.216Z,25.10
2018-07-02T04:47:09.569Z,25.80
2018-07-02T04:49:47.312Z,26.30
2018-07-02T04:52:24.937Z,26.00
2018-07-02T04:55:00.969Z,26.50
2018-07-02T05:00:43.349Z,26.90
2018-07-02T05:03:23.111Z,27.20
2018-07-02T05:06:05.508Z,28.00
2018-07-02T05:08:51.773Z,27.60
2018-07-02T05:11:29.822Z,27.10
2018-07-02T05:14:10.103Z,27.60
2018-07-02T05:16:53.822Z,28.30
2018-07-02T05:19:58.044Z,28.10
2018-07-02T05:22:51.822Z,28.70
2018-07-02T05:25:48.393Z,28.90
2018-07-02T05:28:35.571Z,29.20
2018-07-02T05:36:53.990Z,29.60
2018-07-02T05:39:40.230Z,29.30
2018-07-02T05:42:29.592Z,29.10
2018-07-02T05:45:09.071Z,28.70
2018-07-02T05:47:49.362Z,28.90
2018-07-02T05:50:32.972Z,29.50
2018-07-02T05:56:27.860Z,30.40
2018-07-02T05:59:03.198Z,30.40
2018-07-02T06:01:37.311Z,30.30
2018-07-02T06:04:19.155Z,29.40
2018-07-02T06:07:02.325Z,30.00
2018-07-02T06:09:40.473Z,29.00
2018-07-02T06:12:20.714Z,29.60
2018-07-02T06:14:56.919Z,30.40
2018-07-02T06:17:33.718Z,30.80
2018-07-02T06:20:13.554Z,28.90
2018-07-02T06:22:55.607Z,29.50
2018-07-02T06:25:36.916Z,28.60
2018-07-02T06:28:14.205Z,28.40
2018-07-02T06:30:59.904Z,29.50
2018-07-02T06:33:38.439Z,30.10
2018-07-02T06:39:16.453Z,30.50
2018-07-02T06:42:00.081Z,30.90
2018-07-02T06:44:51.576Z,30.90
2018-07-02T06:47:55.495Z,32.10
2018-07-02T06:50:57.548Z,31.10
2018-07-02T06:53:49.645Z,30.90
2018-07-02T06:56:25.526Z,31.10
2018-07-02T06:59:00.772Z,31.50
2018-07-02T07:01:46.502Z,31.60
2018-07-02T07:07:32.618Z,31.30
2018-07-02T07:10:24.884Z,30.80
2018-07-02T07:13:03.500Z,32.10
2018-07-02T07:15:45.784Z,32.40
2018-07-02T07:18:29.459Z,32.60
2018-07-02T07:21:39.014Z,32.60
2018-07-02T07:24:16.349Z,32.70
2018-07-02T07:29:56.433Z,34.50
2018-07-02T07:32:53.191Z,35.20
2018-07-02T07:35:42.986Z,35.30
2018-07-02T07:41:29.752Z,34.50
2018-07-02T07:44:18.876Z,33.90
2018-07-02T07:50:04.731Z,32.90
2018-07-02T07:52:47.264Z,31.90
2018-07-02T07:56:37.509Z,32.30
2018-07-02T07:59:27.320Z,32.60
2018-07-02T08:02:23.449Z,33.50
2018-07-02T08:06:22.984Z,33.00
2018-07-02T08:21:06.464Z,33.30
2018-07-02T08:27:15.447Z,36.00
2018-07-02T08:33:08.441Z,34.40
2018-07-02T08:48:06.117Z,32.30
2018-07-02T09:07:52.753Z,31.20
2018-07-02T09:10:49.605Z,31.90
2018-07-02T09:13:47.693Z,31.40
2018-07-02T23:36:42.976Z,20.50
2018-07-02T23:39:26.678Z,20.50
2018-07-02T23:42:04.236Z,20.50
2018-07-02T23:44:44.281Z,20.50
2018-07-02T23:47:48.805Z,20.50
2018-07-02T23:50:39.531Z,20.40
2018-07-02T23:53:30.255Z,20.40
2018-07-02T23:58:57.755Z,20.30
